Time;durP1;ratioP1;P1;durP2;ratioP2;P2;SDS_P1;SDS_P2;PMS_P1;PMS_P2;Temp;Humidity;BMP_temperature;BMP_pressure;BME280_temperature;BME280_humidity;BME280_pressure;Samples;Min_cycle;Max_cycle;Signal;HPM_P1;HPM_P2
2021/06/08 00:01:57;;;;;;;4.53;1.93;;;17.00;74.90;;;;;;5064506;28;20195;-73
2021/06/08 00:04:23;;;;;;;5.93;2.40;;;17.00;74.80;;;;;;5064217;28;20183;-74
2021/06/08 00:06:51;;;;;;;2.93;2.20;;;17.00;74.50;;;;;;5064985;28;20632;-73
2021/06/08 00:09:17;;;;;;;4.60;2.30;;;17.10;74.60;;;;;;5061153;28;20764;-73
2021/06/08 00:11:44;;;;;;;2.87;2.20;;;17.10;74.50;;;;;;5062528;28;20233;-72
2021/06/08 00:14:11;;;;;;;3.93;2.40;;;17.00;74.50;;;;;;5060553;28;20206;-73
2021/06/08 00:16:37;;;;;;;3.03;2.13;;;17.00;74.50;;;;;;5044002;28;20215;-75
2021/06/08 00:19:03;;;;;;;5.30;2.17;;;17.00;74.40;;;;;;5061512;28;20278;-75
2021/06/08 00:21:30;;;;;;;6.87;2.20;;;17.10;74.50;;;;;;5042494;28;20960;-75
2021/06/08 00:23:56;;;;;;;6.53;2.63;;;17.20;74.80;;;;;;5045184;28;20281;-75
2021/06/08 00:26:22;;;;;;;3.37;2.20;;;17.20;74.40;;;;;;5063947;28;20198;-75
2021/06/08 00:28:49;;;;;;;3.83;2.43;;;17.20;74.40;;;;;;5062975;28;20191;-75
2021/06/08 00:31:15;;;;;;;4.27;2.00;;;17.10;74.60;;;;;;5045263;28;20191;-76
2021/06/08 00:33:41;;;;;;;7.03;2.43;;;17.10;74.80;;;;;;5063648;28;20221;-74
2021/06/08 00:36:08;;;;;;;4.00;2.30;;;17.00;74.90;;;;;;5061131;28;20206;-74
2021/06/08 00:38:34;;;;;;;3.80;2.20;;;17.00;75.10;;;;;;5059447;28;20218;-74
2021/06/08 00:41:02;;;;;;;4.13;2.20;;;17.10;75.20;;;;;;5060044;28;20190;-72
2021/06/08 00:43:29;;;;;;;4.37;2.20;;;17.10;75.30;;;;;;5062589;28;20176;-73
2021/06/08 00:45:55;;;;;;;4.10;1.97;;;17.20;75.30;;;;;;5073679;28;20595;-73
2021/06/08 00:48:23;;;;;;;4.10;1.87;;;17.30;75.40;;;;;;5060757;28;20181;-73
2021/06/08 00:50:49;;;;;;;8.13;2.00;;;17.30;75.30;;;;;;5058556;28;20229;-75
2021/06/08 00:53:16;;;;;;;3.57;1.80;;;17.30;75.10;;;;;;5061796;28;20777;-73
2021/06/08 00:55:42;;;;;;;3.03;1.80;;;17.40;75.00;;;;;;5060802;28;20211;-74
2021/06/08 00:58:09;;;;;;;8.63;2.20;;;17.30;75.10;;;;;;5059670;28;20313;-73
2021/06/08 01:00:36;;;;;;;4.53;1.80;;;17.40;75.30;;;;;;5062672;28;20278;-74
2021/06/08 01:03:04;;;;;;;3.87;1.90;;;17.50;75.40;;;;;;5056668;28;20183;-73
2021/06/08 01:05:31;;;;;;;6.10;2.03;;;17.50;75.30;;;;;;5062496;28;20265;-73
2021/06/08 01:07:57;;;;;;;3.50;1.90;;;17.50;75.00;;;;;;5057684;28;20893;-73
2021/06/08 01:10:23;;;;;;;4.20;1.70;;;17.40;74.80;;;;;;5060401;28;20194;-74
2021/06/08 01:12:50;;;;;;;3.53;1.73;;;17.50;74.20;;;;;;5059550;28;20201;-74
2021/06/08 01:15:16;;;;;;;7.83;1.80;;;17.40;73.20;;;;;;5059810;28;20195;-75
2021/06/08 01:17:42;;;;;;;2.57;1.90;;;17.40;73.00;;;;;;5061838;28;20223;-73
2021/06/08 01:20:10;;;;;;;2.73;1.80;;;17.30;72.10;;;;;;5061064;28;20231;-74
2021/06/08 01:22:37;;;;;;;1.93;1.53;;;17.30;71.50;;;;;;5063689;28;20198;-73
2021/06/08 01:25:06;;;;;;;5.10;1.87;;;17.30;70.80;;;;;;5061664;28;20254;-73
2021/06/08 01:27:33;;;;;;;4.27;1.63;;;17.30;70.40;;;;;;5046384;28;20298;-74
2021/06/08 01:30:00;;;;;;;5.00;2.03;;;17.20;69.90;;;;;;5069859;28;20241;-74
2021/06/08 01:32:30;;;;;;;8.80;2.97;;;17.20;69.60;;;;;;5064050;28;20198;-73
2021/06/08 01:34:57;;;;;;;4.77;1.70;;;17.30;68.80;;;;;;5042569;28;20281;-74
2021/06/08 01:37:24;;;;;;;2.20;1.73;;;17.30;68.90;;;;;;5062151;28;20614;-73
2021/06/08 01:39:53;;;;;;;5.07;1.80;;;17.30;68.70;;;;;;5062334;28;20244;-74
2021/06/08 01:42:20;;;;;;;5.87;1.87;;;17.30;68.60;;;;;;5057531;28;20201;-73
2021/06/08 01:44:47;;;;;;;7.37;1.83;;;17.40;68.00;;;;;;5057460;28;20187;-74
2021/06/08 01:47:14;;;;;;;4.47;1.80;;;17.40;67.70;;;;;;5057327;28;20223;-74
2021/06/08 01:49:41;;;;;;;2.00;1.50;;;17.30;67.30;;;;;;5059237;28;20209;-75
2021/06/08 01:52:45;;;;;;;1.93;1.70;;;17.30;67.60;;;;;;5059731;28;20245;-74
2021/06/08 01:55:43;;;;;;;8.10;1.90;;;17.30;67.50;;;;;;5057672;28;20203;-74
2021/06/08 01:58:22;;;;;;;9.00;1.90;;;17.40;67.60;;;;;;5066408;28;20226;-74
2021/06/08 02:00:58;;;;;;;6.87;1.80;;;17.40;67.20;;;;;;5062703;28;20355;-74
2021/06/08 02:04:05;;;;;;;2.10;1.50;;;17.40;66.90;;;;;;5054610;28;20186;-73
2021/06/08 02:07:35;;;;;;;4.73;2.00;;;17.30;67.10;;;;;;5056467;28;20245;-72
2021/06/08 02:10:38;;;;;;;4.03;1.83;;;17.40;66.90;;;;;;5023103;28;21149;-73
2021/06/08 02:13:15;;;;;;;5.13;2.17;;;17.40;66.70;;;;;;5055939;28;20210;-73
2021/06/08 02:16:22;;;;;;;3.87;1.50;;;17.30;66.20;;;;;;5062031;28;20213;-71
2021/06/08 02:18:50;;;;;;;2.77;1.80;;;17.40;66.60;;;;;;5064342;28;20187;-72
2021/06/08 02:21:26;;;;;;;8.20;2.07;;;17.40;66.40;;;;;;5057651;28;20519;-72
2021/06/08 02:23:55;;;;;;;5.97;1.77;;;17.30;66.20;;;;;;5052523;28;20662;-72
2021/06/08 02:26:26;;;;;;;6.53;1.97;;;17.30;66.20;;;;;;5080698;28;20203;-73
2021/06/08 02:28:55;;;;;;;7.57;1.70;;;17.40;66.10;;;;;;5060228;28;20190;-73
2021/06/08 02:31:24;;;;;;;7.60;1.90;;;17.40;66.00;;;;;;5062425;28;20183;-72
2021/06/08 02:33:52;;;;;;;5.00;1.70;;;17.30;66.10;;;;;;5059919;28;20194;-74
2021/06/08 02:36:19;;;;;;;2.07;1.60;;;17.30;66.20;;;;;;5056363;28;20210;-73
2021/06/08 02:38:48;;;;;;;3.83;1.70;;;17.30;66.30;;;;;;5056309;28;20348;-76
2021/06/08 02:41:15;;;;;;;3.30;1.87;;;17.20;66.20;;;;;;5057795;28;20187;-75
2021/06/08 02:43:46;;;;;;;8.63;1.73;;;17.20;66.10;;;;;;5053782;28;20268;-75
2021/06/08 02:46:14;;;;;;;3.10;1.57;;;17.10;66.10;;;;;;5061304;28;20835;-74
2021/06/08 02:48:42;;;;;;;3.77;1.83;;;17.00;66.00;;;;;;5058565;28;20579;-73
2021/06/08 02:51:13;;;;;;;4.00;1.77;;;17.00;65.90;;;;;;5061378;28;20191;-75
2021/06/08 02:53:41;;;;;;;3.13;1.67;;;17.00;65.90;;;;;;5059080;28;20679;-75
2021/06/08 02:56:09;;;;;;;4.93;1.97;;;17.10;65.80;;;;;;5044656;28;20539;-73
2021/06/08 02:58:37;;;;;;;3.13;1.50;;;17.20;66.00;;;;;;5065550;28;20186;-74
2021/06/08 03:01:08;;;;;;;3.13;1.70;;;17.20;66.10;;;;;;5064895;28;20201;-74
2021/06/08 03:03:37;;;;;;;4.10;1.83;;;17.20;66.10;;;;;;5064919;28;20264;-74
2021/06/08 03:06:10;;;;;;;5.63;1.87;;;17.10;66.60;;;;;;5056038;28;20660;-74
2021/06/08 03:09:05;;;;;;;5.43;1.77;;;17.20;67.10;;;;;;5060218;28;20651;-74
2021/06/08 03:11:42;;;;;;;2.67;1.90;;;17.30;66.80;;;;;;5044131;28;20240;-75
2021/06/08 03:14:16;;;;;;;6.37;1.60;;;17.30;66.90;;;;;;5063389;28;20198;-74
2021/06/08 03:16:53;;;;;;;5.13;1.77;;;17.30;66.90;;;;;;5058648;28;20213;-73
2021/06/08 03:19:26;;;;;;;3.83;1.90;;;17.30;67.50;;;;;;5048254;28;20274;-75
2021/06/08 03:21:59;;;;;;;2.27;1.67;;;17.30;66.80;;;;;;5058666;28;20187;-73
2021/06/08 03:24:32;;;;;;;6.70;1.87;;;17.30;66.30;;;;;;5062193;28;20481;-74
2021/06/08 03:27:00;;;;;;;8.93;1.50;;;17.40;66.10;;;;;;5057459;28;20275;-74
2021/06/08 03:29:31;;;;;;;4.47;1.77;;;17.50;66.10;;;;;;5061076;28;20195;-73
2021/06/08 03:32:00;;;;;;;2.77;1.60;;;17.60;65.80;;;;;;5058744;28;20227;-72
2021/06/08 03:34:29;;;;;;;2.63;1.60;;;17.60;66.10;;;;;;5063784;28;20190;-72
2021/06/08 03:36:58;;;;;;;3.93;1.70;;;17.50;66.70;;;;;;5061657;28;20215;-73
2021/06/08 03:39:26;;;;;;;8.77;1.80;;;17.50;67.40;;;;;;5064179;28;20290;-72
2021/06/08 03:41:54;;;;;;;5.37;1.50;;;17.50;68.00;;;;;;5061042;28;20171;-73
2021/06/08 03:44:21;;;;;;;6.77;1.90;;;17.50;68.60;;;;;;5063306;28;20195;-73
2021/06/08 03:46:50;;;;;;;3.77;1.97;;;17.50;69.10;;;;;;5044259;28;20655;-73
2021/06/08 03:49:22;;;;;;;5.97;2.30;;;17.60;69.20;;;;;;5061395;28;20216;-74
2021/06/08 03:51:54;;;;;;;5.33;1.90;;;17.60;69.50;;;;;;5058283;28;20175;-76
2021/06/08 03:54:22;;;;;;;5.33;1.60;;;17.70;69.80;;;;;;5045855;28;20197;-76
2021/06/08 03:56:54;;;;;;;2.40;1.60;;;17.70;70.30;;;;;;5060689;28;20294;-74
2021/06/08 03:59:28;;;;;;;7.23;2.00;;;17.80;70.60;;;;;;5064835;28;20269;-74
2021/06/08 04:01:55;;;;;;;2.97;1.73;;;17.80;71.40;;;;;;5062728;28;20194;-74
2021/06/08 04:04:22;;;;;;;4.77;1.90;;;17.80;72.20;;;;;;5046400;28;20193;-75
2021/06/08 04:06:50;;;;;;;3.00;1.53;;;17.90;72.70;;;;;;5044474;28;20218;-75
2021/06/08 04:09:17;;;;;;;6.23;1.87;;;18.00;73.00;;;;;;5059134;28;20200;-75
2021/06/08 04:11:50;;;;;;;4.93;1.70;;;18.00;73.40;;;;;;5063699;28;20191;-76
2021/06/08 04:14:18;;;;;;;4.63;2.00;;;18.10;73.70;;;;;;5055693;28;20202;-75
2021/06/08 04:16:48;;;;;;;4.13;1.70;;;18.10;74.60;;;;;;5045995;28;20214;-75
2021/06/08 04:19:17;;;;;;;2.93;1.70;;;18.20;74.50;;;;;;5062159;28;20563;-75
2021/06/08 04:21:48;;;;;;;3.83;2.10;;;18.30;75.10;;;;;;5048667;28;20178;-75
2021/06/08 04:24:14;;;;;;;4.50;1.60;;;18.50;73.90;;;;;;5063345;28;20197;-74
2021/06/08 04:26:41;;;;;;;5.57;1.60;;;18.80;74.50;;;;;;5043645;28;20195;-76
2021/06/08 04:29:07;;;;;;;3.97;1.80;;;19.10;74.60;;;;;;5058004;28;20191;-76
2021/06/08 04:31:35;;;;;;;2.60;1.70;;;19.30;72.80;;;;;;5063346;28;20182;-74
2021/06/08 04:34:02;;;;;;;9.50;1.90;;;19.50;72.00;;;;;;5061216;28;21134;-74
2021/06/08 04:36:28;;;;;;;3.67;1.97;;;19.70;70.90;;;;;;5044729;28;20208;-75
2021/06/08 04:38:55;;;;;;;8.47;1.80;;;19.70;71.30;;;;;;5062345;28;20175;-75
2021/06/08 04:41:22;;;;;;;4.60;2.10;;;19.80;72.80;;;;;;5060371;28;20531;-76
2021/06/08 04:43:48;;;;;;;3.43;1.90;;;19.80;73.40;;;;;;5059710;28;20233;-72
2021/06/08 04:46:16;;;;;;;5.20;1.90;;;19.70;74.20;;;;;;5041530;28;20186;-72
2021/06/08 04:48:44;;;;;;;4.93;1.90;;;19.70;73.80;;;;;;5057492;28;20769;-72
2021/06/08 04:51:12;;;;;;;4.37;1.83;;;19.60;74.30;;;;;;5051724;28;20587;-73
2021/06/08 04:53:41;;;;;;;2.70;1.90;;;19.70;74.50;;;;;;5057943;28;20179;-71
2021/06/08 04:56:07;;;;;;;2.90;2.17;;;20.00;73.20;;;;;;5058945;28;20677;-72
2021/06/08 04:58:36;;;;;;;7.13;2.00;;;20.10;71.20;;;;;;5047387;28;20709;-72
2021/06/08 05:01:29;;;;;;;4.23;1.93;;;20.20;71.90;;;;;;5056516;28;20187;-72
2021/06/08 05:04:14;;;;;;;8.73;1.90;;;20.20;72.80;;;;;;5056733;28;20287;-71
2021/06/08 05:06:51;;;;;;;3.87;2.00;;;20.40;73.20;;;;;;5072323;28;20229;-72
2021/06/08 05:09:30;;;;;;;3.83;1.87;;;20.50;72.40;;;;;;5060572;28;20186;-73
2021/06/08 05:12:00;;;;;;;3.40;1.80;;;20.50;71.70;;;;;;5054305;28;20182;-72
2021/06/08 05:14:29;;;;;;;4.10;1.67;;;20.80;70.40;;;;;;5060055;28;20191;-72
2021/06/08 05:16:58;;;;;;;4.70;1.83;;;21.00;71.80;;;;;;5053977;28;20235;-71
2021/06/08 05:19:25;;;;;;;3.40;1.60;;;21.00;70.30;;;;;;5061930;28;20182;-72
2021/06/08 05:21:53;;;;;;;5.53;1.90;;;21.10;68.60;;;;;;5040091;28;20194;-71
2021/06/08 05:24:22;;;;;;;4.37;1.67;;;21.30;67.70;;;;;;5060347;28;20539;-73
2021/06/08 05:26:50;;;;;;;2.93;1.63;;;21.60;68.20;;;;;;5055403;28;20203;-71
2021/06/08 05:29:22;;;;;;;6.07;2.20;;;21.70;67.60;;;;;;5055370;28;20191;-73
2021/06/08 05:31:49;;;;;;;6.43;1.60;;;21.70;68.70;;;;;;5062145;28;20511;-71
2021/06/08 05:34:20;;;;;;;3.00;1.90;;;21.80;69.30;;;;;;5055168;28;20195;-71
2021/06/08 05:36:47;;;;;;;6.23;1.93;;;22.30;66.80;;;;;;5057173;28;20601;-73
2021/06/08 05:39:13;;;;;;;3.47;2.00;;;22.40;66.90;;;;;;5055444;28;20198;-73
2021/06/08 05:41:40;;;;;;;7.63;1.80;;;22.40;67.70;;;;;;5041737;28;20194;-72
2021/06/08 05:44:10;;;;;;;4.17;1.87;;;22.30;69.10;;;;;;5058922;28;20226;-73
2021/06/08 05:46:37;;;;;;;4.43;1.97;;;22.30;68.60;;;;;;5055932;28;20186;-72
2021/06/08 05:49:08;;;;;;;5.63;1.90;;;22.40;66.30;;;;;;5057883;28;20490;-73
2021/06/08 05:51:38;;;;;;;3.67;1.80;;;22.50;62.30;;;;;;5071997;28;20270;-72
2021/06/08 05:54:08;;;;;;;6.10;1.60;;;22.90;62.90;;;;;;5055716;28;20745;-74
2021/06/08 05:56:38;;;;;;;5.03;1.63;;;23.80;57.60;;;;;;5060201;28;20314;-71
2021/06/08 05:59:06;;;;;;;4.80;1.53;;;24.00;58.10;;;;;;5055296;28;20262;-71
2021/06/08 06:01:33;;;;;;;4.83;1.80;;;23.50;61.40;;;;;;5061850;28;20237;-72
2021/06/08 06:04:00;;;;;;;2.57;1.87;;;23.20;61.80;;;;;;5040428;28;20178;-69
2021/06/08 06:06:27;;;;;;;6.30;2.00;;;23.00;61.90;;;;;;5058108;28;20557;-69
2021/06/08 06:08:55;;;;;;;6.60;1.80;;;23.20;60.30;;;;;;5055561;28;20677;-71
2021/06/08 06:11:22;;;;;;;5.20;1.83;;;23.30;60.50;;;;;;5063835;28;20213;-71
2021/06/08 06:14:04;;;;;;;4.47;1.70;;;23.80;60.90;;;;;;5057823;28;20812;-73
2021/06/08 06:16:35;;;;;;;5.90;1.80;;;23.80;61.50;;;;;;5054669;28;20225;-71
2021/06/08 06:19:05;;;;;;;6.28;1.80;;;23.70;61.60;;;;;;5062642;28;20182;-72
2021/06/08 06:21:31;;;;;;;7.45;1.67;;;23.60;61.80;;;;;;5044649;28;20726;-71
2021/06/08 06:24:00;;;;;;;3.70;2.17;;;23.80;61.40;;;;;;5056348;28;20191;-71
2021/06/08 06:26:27;;;;;;;2.85;1.45;;;24.10;62.00;;;;;;5054594;28;20197;-73
2021/06/08 06:43:46;;;;;;;3.95;1.88;;;24.50;61.40;;;;;;5061521;28;20179;-71
2021/06/08 06:46:14;;;;;;;6.55;1.85;;;24.80;61.20;;;;;;5056330;28;20186;-70
2021/06/08 06:48:42;;;;;;;9.45;1.92;;;24.90;59.10;;;;;;5060356;28;20179;-71
2021/06/08 06:51:10;;;;;;;4.47;1.90;;;24.90;60.30;;;;;;5056939;28;20262;-71
2021/06/08 06:53:39;;;;;;;5.63;2.20;;;24.80;61.50;;;;;;5056892;28;20248;-70
2021/06/08 06:56:06;;;;;;;7.50;1.88;;;25.00;62.00;;;;;;5066075;28;20269;-70
2021/06/08 06:58:34;;;;;;;5.20;2.10;;;25.40;59.30;;;;;;5062389;28;20274;-71
2021/06/08 07:01:02;;;;;;;9.15;2.40;;;25.40;59.80;;;;;;5055344;28;20575;-69
2021/06/08 07:03:32;;;;;;;7.38;1.90;;;25.40;60.50;;;;;;5061546;28;20210;-73
2021/06/08 07:06:00;;;;;;;6.47;2.20;;;25.50;61.40;;;;;;5059405;28;20259;-71
2021/06/08 07:08:29;;;;;;;3.05;2.00;;;25.60;60.20;;;;;;5063583;28;20187;-74
2021/06/08 07:10:58;;;;;;;4.93;1.92;;;25.80;59.00;;;;;;5088989;28;20206;-70
2021/06/08 07:13:26;;;;;;;6.45;2.20;;;25.90;59.00;;;;;;5056849;28;20747;-69
2021/06/08 07:15:54;;;;;;;6.47;2.00;;;26.10;57.90;;;;;;5083444;28;20310;-71
2021/06/08 07:18:21;;;;;;;2.72;1.95;;;26.10;57.10;;;;;;5057051;28;20273;-72
2021/06/08 07:20:48;;;;;;;4.57;1.90;;;26.20;59.00;;;;;;5063047;28;20240;-73
2021/06/08 07:23:19;;;;;;;8.57;2.00;;;26.10;60.90;;;;;;5060563;28;20562;-71
2021/06/08 07:25:48;;;;;;;4.45;2.00;;;26.00;60.60;;;;;;5070689;28;20265;-72
2021/06/08 07:28:23;;;;;;;7.15;2.20;;;26.10;61.70;;;;;;5057926;28;20754;-71
2021/06/08 07:30:54;;;;;;;8.48;2.25;;;26.60;62.20;;;;;;5056550;28;20191;-73
2021/06/08 07:33:47;;;;;;;6.50;2.38;;;26.40;63.90;;;;;;5058811;28;20194;-71
2021/06/08 07:36:57;;;;;;;5.97;2.13;;;26.60;64.10;;;;;;5060227;28;20675;-72
2021/06/08 07:39:51;;;;;;;5.55;2.13;;;26.60;63.70;;;;;;5083215;28;20679;-71
2021/06/08 07:42:25;;;;;;;3.33;2.17;;;26.90;65.70;;;;;;5081024;28;20226;-71
2021/06/08 07:45:02;;;;;;;5.47;2.20;;;27.20;63.00;;;;;;5057442;28;20213;-72
2021/06/08 07:47:32;;;;;;;3.25;2.10;;;27.10;62.90;;;;;;5044901;28;20187;-73
2021/06/08 07:50:08;;;;;;;3.10;2.08;;;27.10;62.90;;;;;;5059310;28;20265;-72
2021/06/08 07:52:35;;;;;;;11.43;2.15;;;27.10;65.00;;;;;;5070452;28;20191;-73
2021/06/08 07:55:06;;;;;;;8.27;2.53;;;27.50;66.70;;;;;;5043714;28;20186;-72
2021/06/08 07:57:32;;;;;;;4.93;2.40;;;27.60;66.70;;;;;;5057831;28;20322;-72
2021/06/08 07:59:59;;;;;;;5.38;2.42;;;27.80;68.20;;;;;;5054824;28;20226;-74
2021/06/08 08:02:27;;;;;;;8.88;2.22;;;27.80;67.90;;;;;;5060967;28;20711;-72
2021/06/08 08:04:57;;;;;;;5.05;2.20;;;27.80;69.90;;;;;;5054125;28;20207;-71
2021/06/08 08:07:26;;;;;;;4.28;2.30;;;27.80;69.50;;;;;;5053622;28;20195;-71
2021/06/08 08:09:55;;;;;;;5.68;2.53;;;27.90;70.20;;;;;;5058446;28;20197;-72
2021/06/08 08:12:26;;;;;;;12.50;2.53;;;28.00;66.30;;;;;;5062544;28;20190;-70
2021/06/08 08:14:53;;;;;;;7.93;2.30;;;28.00;70.90;;;;;;5039217;28;20186;-74
2021/06/08 08:17:25;;;;;;;5.40;2.42;;;28.00;70.50;;;;;;5057640;28;20274;-72
2021/06/08 08:19:52;;;;;;;8.23;2.78;;;28.00;72.10;;;;;;5040125;28;20202;-70
2021/06/08 08:22:18;;;;;;;4.35;2.30;;;28.00;72.30;;;;;;5059807;28;20202;-70
2021/06/08 08:24:45;;;;;;;5.97;2.25;;;28.10;73.20;;;;;;5060054;28;20182;-70
2021/06/08 08:27:15;;;;;;;7.47;2.72;;;28.20;74.00;;;;;;5058610;28;20257;-72
2021/06/08 08:29:45;;;;;;;4.15;2.40;;;28.10;73.20;;;;;;5061284;28;20203;-73
2021/06/08 08:32:13;;;;;;;6.47;2.33;;;28.30;73.70;;;;;;5057924;28;20202;-71
2021/06/08 08:34:42;;;;;;;7.50;2.83;;;28.40;74.10;;;;;;5042037;28;20519;-70
2021/06/08 08:37:09;;;;;;;4.18;1.98;;;28.30;74.00;;;;;;5071506;28;20219;-70
2021/06/08 08:39:35;;;;;;;6.50;2.30;;;28.20;74.40;;;;;;5056865;28;20184;-70
2021/06/08 08:42:05;;;;;;;8.40;2.55;;;28.40;75.10;;;;;;5056275;28;20183;-72
2021/06/08 08:44:32;;;;;;;12.98;2.67;;;28.20;75.30;;;;;;5055415;28;20618;-70
2021/06/08 08:46:58;;;;;;;9.63;3.00;;;28.30;78.80;;;;;;5044337;28;20386;-71
2021/06/08 08:49:29;;;;;;;6.25;2.78;;;28.40;81.60;;;;;;5059527;28;20198;-71
2021/06/08 08:51:56;;;;;;;6.25;2.90;;;28.50;81.70;;;;;;5053159;28;20183;-70
2021/06/08 08:54:23;;;;;;;5.25;2.55;;;28.60;82.90;;;;;;5051912;28;20190;-72
2021/06/08 08:56:50;;;;;;;6.28;2.85;;;28.70;82.20;;;;;;5053851;28;20287;-71
2021/06/08 08:59:19;;;;;;;10.43;2.90;;;28.70;83.30;;;;;;5055376;28;20210;-70
2021/06/08 09:01:49;;;;;;;5.88;2.10;;;28.70;81.20;;;;;;5045814;28;20680;-71
2021/06/08 09:04:18;;;;;;;6.28;2.55;;;28.80;82.40;;;;;;5054193;28;20195;-71
2021/06/08 09:06:44;;;;;;;4.10;2.70;;;28.80;82.80;;;;;;5055324;28;20190;-72
2021/06/08 09:09:12;;;;;;;7.40;2.65;;;28.80;85.20;;;;;;5061620;28;20226;-70
2021/06/08 09:11:41;;;;;;;6.32;2.40;;;29.10;85.40;;;;;;5055639;28;20187;-70
2021/06/08 09:14:11;;;;;;;4.45;2.50;;;29.20;85.00;;;;;;5055673;28;20182;-71
2021/06/08 09:16:38;;;;;;;9.77;2.60;;;29.10;85.40;;;;;;5057411;28;20237;-71
2021/06/08 09:19:11;;;;;;;4.78;2.60;;;29.10;84.50;;;;;;5053715;28;20202;-70
2021/06/08 09:21:44;;;;;;;6.82;2.40;;;28.80;86.00;;;;;;5058256;28;20509;-70
2021/06/08 09:24:20;;;;;;;6.13;2.45;;;29.10;82.00;;;;;;5060610;28;20183;-72
2021/06/08 09:27:07;;;;;;;5.88;2.42;;;29.60;76.60;;;;;;5059911;28;20203;-69
2021/06/08 09:29:39;;;;;;;5.13;2.55;;;29.70;73.10;;;;;;5056917;28;20184;-68
2021/06/08 09:32:26;;;;;;;11.45;3.15;;;29.60;72.80;;;;;;5057977;28;20293;-68
2021/06/08 09:35:01;;;;;;;3.85;2.25;;;29.40;74.00;;;;;;5057931;28;20194;-68
2021/06/08 09:37:41;;;;;;;5.68;2.50;;;29.80;70.80;;;;;;5058827;28;20221;-69
2021/06/08 09:40:21;;;;;;;6.97;2.40;;;30.00;70.40;;;;;;5054734;28;20523;-69
2021/06/08 09:43:10;;;;;;;7.05;2.22;;;30.00;69.70;;;;;;5059137;28;20189;-68
2021/06/08 09:45:53;;;;;;;4.22;2.42;;;30.10;69.50;;;;;;5044781;28;20196;-68
2021/06/08 09:48:19;;;;;;;5.13;2.55;;;29.90;69.30;;;;;;5042420;28;20190;-70
2021/06/08 09:50:49;;;;;;;4.35;2.40;;;30.20;70.00;;;;;;5041520;28;20484;-68
2021/06/08 09:53:27;;;;;;;5.68;2.42;;;30.20;68.50;;;;;;5060091;28;20194;-68
2021/06/08 09:56:05;;;;;;;6.03;2.45;;;30.20;67.20;;;;;;5053843;28;20572;-68
2021/06/08 09:58:34;;;;;;;4.00;2.13;;;30.40;66.70;;;;;;5057638;28;20284;-71
2021/06/08 10:01:22;;;;;;;4.75;2.22;;;30.70;65.00;;;;;;5054361;28;20187;-68
2021/06/08 10:04:08;;;;;;;5.00;2.13;;;30.80;63.60;;;;;;5057360;28;20528;-69
2021/06/08 10:06:41;;;;;;;4.65;1.90;;;30.50;63.60;;;;;;5056780;28;20245;-68
2021/06/08 10:09:14;;;;;;;6.28;2.15;;;31.00;60.10;;;;;;5056292;28;20222;-74
2021/06/08 10:11:42;;;;;;;6.50;2.28;;;31.20;61.00;;;;;;5041695;28;20821;-69
2021/06/08 10:14:20;;;;;;;4.10;2.00;;;31.30;58.80;;;;;;5054689;28;20301;-68
2021/06/08 10:17:01;;;;;;;1.63;1.00;;;31.10;54.40;;;;;;5037803;28;20204;-68
2021/06/08 10:19:29;;;;;;;3.90;2.20;;;30.80;48.90;;;;;;5059365;28;20239;-70
2021/06/08 10:22:02;;;;;;;3.00;1.98;;;31.00;58.70;;;;;;5051362;28;20199;-68
2021/06/08 10:24:29;;;;;;;6.28;2.53;;;31.10;58.00;;;;;;5044290;28;20179;-72
2021/06/08 10:26:59;;;;;;;2.95;1.92;;;31.10;58.10;;;;;;5056579;28;20540;-69
2021/06/08 10:29:30;;;;;;;6.25;2.03;;;30.90;56.50;;;;;;5058549;28;20291;-69
2021/06/08 10:31:58;;;;;;;4.50;2.42;;;30.80;55.70;;;;;;5058278;28;22306;-68
2021/06/08 10:34:27;;;;;;;3.78;2.55;;;31.00;59.10;;;;;;5056147;28;20178;-70
2021/06/08 10:36:55;;;;;;;6.10;2.17;;;31.30;60.60;;;;;;5059607;28;20250;-68
2021/06/08 10:39:25;;;;;;;2.80;2.10;;;31.30;60.00;;;;;;5054925;28;20193;-69
2021/06/08 10:41:52;;;;;;;6.75;2.50;;;31.00;59.20;;;;;;5054101;28;20187;-71
2021/06/08 10:44:21;;;;;;;5.22;2.28;;;31.00;58.90;;;;;;5055648;28;20279;-68
2021/06/08 10:47:00;;;;;;;5.25;2.40;;;31.10;58.20;;;;;;5057890;28;20178;-69
2021/06/08 10:49:33;;;;;;;4.88;2.25;;;30.50;59.40;;;;;;5055112;28;20302;-67
2021/06/08 10:52:12;;;;;;;4.30;2.03;;;30.30;57.50;;;;;;5056516;28;20183;-69
2021/06/08 10:54:48;;;;;;;7.47;2.08;;;30.80;58.10;;;;;;5084763;28;20183;-70
2021/06/08 10:57:16;;;;;;;3.75;2.00;;;30.80;56.30;;;;;;5059342;28;20211;-70
2021/06/08 10:59:47;;;;;;;5.35;3.08;;;30.90;56.60;;;;;;5053387;28;20192;-70
2021/06/08 11:02:45;;;;;;;6.18;2.60;;;31.20;59.40;;;;;;5057324;28;20739;-69
2021/06/08 11:05:14;;;;;;;5.28;2.78;;;31.00;60.90;;;;;;5052528;28;20203;-70
2021/06/08 11:07:43;;;;;;;7.38;2.83;;;31.10;62.10;;;;;;5055636;28;20215;-71
2021/06/08 11:10:43;;;;;;;6.25;3.10;;;31.10;60.80;;;;;;5056323;28;20391;-69
2021/06/08 11:13:10;;;;;;;5.25;3.05;;;30.80;64.10;;;;;;5052185;28;20191;-70
2021/06/08 11:15:49;;;;;;;6.88;2.60;;;30.80;64.80;;;;;;5055004;28;20215;-69
2021/06/08 11:18:22;;;;;;;4.78;3.25;;;30.90;64.90;;;;;;5056585;28;20238;-69
2021/06/08 11:21:11;;;;;;;6.88;2.83;;;31.00;65.00;;;;;;5064213;28;20179;-69
2021/06/08 11:23:44;;;;;;;4.78;3.20;;;31.30;64.80;;;;;;5065565;28;20292;-70
2021/06/08 11:26:14;;;;;;;4.88;3.22;;;30.70;64.90;;;;;;5061121;28;20715;-71
2021/06/08 11:28:54;;;;;;;6.47;3.10;;;31.00;65.20;;;;;;5043820;28;20261;-70
2021/06/08 11:31:25;;;;;;;4.78;2.83;;;30.50;65.70;;;;;;5052348;28;20195;-69
2021/06/08 11:34:05;;;;;;;7.50;3.00;;;30.40;66.60;;;;;;5060803;28;20670;-70
2021/06/08 11:36:36;;;;;;;4.95;3.20;;;30.50;67.00;;;;;;5057120;28;20301;-72
2021/06/08 11:39:22;;;;;;;10.23;3.00;;;30.50;66.40;;;;;;5062365;28;20221;-71
2021/06/08 11:42:04;;;;;;;4.70;2.80;;;30.70;67.10;;;;;;5049377;28;20685;-69
2021/06/08 11:44:30;;;;;;;5.47;3.22;;;30.90;66.10;;;;;;5061643;28;20186;-72
2021/06/08 11:47:00;;;;;;;6.85;3.47;;;30.70;65.80;;;;;;5059076;28;20187;-69
2021/06/08 11:49:29;;;;;;;4.50;2.92;;;30.50;65.80;;;;;;5064329;28;20191;-69
2021/06/08 11:52:13;;;;;;;3.78;2.58;;;30.20;65.00;;;;;;5056963;28;20199;-71
2021/06/08 11:54:44;;;;;;;4.53;2.80;;;30.50;65.90;;;;;;5065397;28;20232;-69
2021/06/08 11:57:31;;;;;;;7.03;3.30;;;30.50;65.00;;;;;;5059757;28;20298;-70
2021/06/08 11:59:59;;;;;;;5.80;2.90;;;30.30;67.30;;;;;;5044516;28;20201;-71
2021/06/08 12:02:41;;;;;;;8.35;2.95;;;30.40;67.40;;;;;;5044622;28;20179;-71
2021/06/08 12:05:24;;;;;;;9.10;3.10;;;30.50;66.80;;;;;;5070348;28;20215;-69
2021/06/08 12:08:05;;;;;;;5.82;3.17;;;30.20;66.80;;;;;;5062453;28;20663;-71
2021/06/08 12:10:37;;;;;;;6.88;2.80;;;30.20;66.40;;;;;;5073219;28;20218;-71
2021/06/08 12:13:04;;;;;;;5.20;3.00;;;30.40;65.90;;;;;;5060276;28;20305;-70
2021/06/08 12:15:43;;;;;;;5.05;2.60;;;30.40;65.60;;;;;;5060850;28;20615;-70
2021/06/08 12:18:26;;;;;;;6.60;2.70;;;30.40;64.10;;;;;;5061059;28;20208;-70
2021/06/08 12:20:53;;;;;;;7.15;2.92;;;30.20;64.30;;;;;;5059100;28;20290;-69
2021/06/08 12:23:31;;;;;;;7.13;2.80;;;30.40;63.80;;;;;;5057736;28;20881;-71
2021/06/08 12:26:23;;;;;;;4.43;2.42;;;30.80;60.40;;;;;;5054612;28;20202;-70
2021/06/08 12:29:14;;;;;;;9.90;2.45;;;30.30;59.80;;;;;;5044480;28;20191;-69
2021/06/08 12:31:57;;;;;;;7.18;2.40;;;30.30;59.00;;;;;;5060940;28;20186;-69
2021/06/08 12:34:25;;;;;;;6.55;2.53;;;30.40;62.20;;;;;;5042549;28;20278;-69
2021/06/08 12:36:54;;;;;;;5.40;2.58;;;29.80;62.20;;;;;;5059265;28;20215;-69
2021/06/08 12:39:30;;;;;;;8.10;2.65;;;30.30;62.40;;;;;;5051979;28;20187;-69
2021/06/08 12:42:18;;;;;;;7.90;2.85;;;30.60;62.00;;;;;;5041862;28;20190;-70
2021/06/08 12:44:46;;;;;;;3.97;2.47;;;31.30;59.90;;;;;;5044406;28;21040;-70
2021/06/08 12:47:17;;;;;;;4.53;2.50;;;31.40;58.70;;;;;;5045273;28;20480;-70
2021/06/08 12:49:45;;;;;;;3.70;2.30;;;31.40;58.90;;;;;;5060837;28;20217;-71
2021/06/08 12:52:19;;;;;;;5.15;2.30;;;31.20;59.00;;;;;;5048101;28;20195;-70
2021/06/08 12:54:51;;;;;;;10.77;2.50;;;30.90;59.00;;;;;;5050494;28;20281;-70
2021/06/08 12:57:30;;;;;;;5.75;2.70;;;31.20;57.80;;;;;;5058823;28;20211;-70
2021/06/08 13:00:18;;;;;;;3.40;2.00;;;31.20;58.50;;;;;;5061036;28;20281;-70
2021/06/08 13:02:46;;;;;;;11.48;2.55;;;31.30;56.10;;;;;;5052351;28;20195;-70
2021/06/08 13:05:13;;;;;;;7.30;2.33;;;31.40;55.50;;;;;;5060969;28;20674;-69
2021/06/08 13:07:44;;;;;;;5.03;2.10;;;31.40;56.70;;;;;;5082702;28;20203;-69
2021/06/08 13:10:19;;;;;;;3.40;1.80;;;31.30;54.60;;;;;;5060807;28;20202;-71
2021/06/08 13:12:52;;;;;;;5.00;2.13;;;31.30;54.50;;;;;;5052364;28;20203;-71
2021/06/08 13:15:32;;;;;;;7.18;2.47;;;31.40;53.70;;;;;;5060867;28;20201;-70
2021/06/08 13:18:11;;;;;;;4.03;1.88;;;31.30;53.60;;;;;;5059211;28;20219;-69
2021/06/08 13:20:44;;;;;;;4.63;2.33;;;31.10;51.20;;;;;;5045648;28;20557;-68
2021/06/08 13:23:25;;;;;;;10.10;2.30;;;31.30;52.40;;;;;;5061244;28;20927;-69
2021/06/08 13:26:12;;;;;;;6.57;2.17;;;31.10;51.00;;;;;;5057835;28;20273;-71